sensor_id;sensor_type;location;lat;lon;timestamp;temperature;humidity
8226;DHT22;4154;48.810;9.012;2023-02-05T00:00:15;3.40;99.90
8226;DHT22;4154;48.810;9.012;2023-02-05T00:02:41;3.40;99.90
8226;DHT22;4154;48.810;9.012;2023-02-05T00:05:07;3.40;99.90
8226;DHT22;4154;48.810;9.012;2023-02-05T00:07:33;3.40;99.90
8226;DHT22;4154;48.810;9.012;2023-02-05T00:09:59;3.40;99.90
8226;DHT22;4154;48.810;9.012;2023-02-05T00:14:50;3.40;99.90
8226;DHT22;4154;48.810;9.012;2023-02-05T00:17:16;3.40;99.90
8226;DHT22;4154;48.810;9.012;2023-02-05T00:19:41;3.40;99.90
8226;DHT22;4154;48.810;9.012;2023-02-05T00:22:07;3.40;99.90
8226;DHT22;4154;48.810;9.012;2023-02-05T00:24:33;3.40;99.90
8226;DHT22;4154;48.810;9.012;2023-02-05T00:26:58;3.40;99.90
8226;DHT22;4154;48.810;9.012;2023-02-05T00:29:24;3.40;99.90
8226;DHT22;4154;48.810;9.012;2023-02-05T00:31:49;3.40;99.90
8226;DHT22;4154;48.810;9.012;2023-02-05T00:34:15;3.40;99.90
8226;DHT22;4154;48.810;9.012;2023-02-05T00:36:41;3.40;99.90
8226;DHT22;4154;48.810;9.012;2023-02-05T00:39:07;3.50;99.90
8226;DHT22;4154;48.810;9.012;2023-02-05T00:41:38;3.50;99.90
8226;DHT22;4154;48.810;9.012;2023-02-05T00:44:04;3.50;99.90
8226;DHT22;4154;48.810;9.012;2023-02-05T00:46:30;3.90;99.90
8226;DHT22;4154;48.810;9.012;2023-02-05T00:48:55;3.50;99.90
8226;DHT22;4154;48.810;9.012;2023-02-05T00:51:21;3.50;99.90
8226;DHT22;4154;48.810;9.012;2023-02-05T00:53:47;3.50;99.90
8226;DHT22;4154;48.810;9.012;2023-02-05T00:56:12;3.50;99.90
8226;DHT22;4154;48.810;9.012;2023-02-05T00:58:38;3.40;99.90
8226;DHT22;4154;48.810;9.012;2023-02-05T01:01:04;3.50;99.90
8226;DHT22;4154;48.810;9.012;2023-02-05T01:03:30;3.50;99.90
8226;DHT22;4154;48.810;9.012;2023-02-05T01:05:56;3.50;99.90
8226;DHT22;4154;48.810;9.012;2023-02-05T01:08:22;3.50;99.90
8226;DHT22;4154;48.810;9.012;2023-02-05T01:10:49;3.50;99.90
8226;DHT22;4154;48.810;9.012;2023-02-05T01:13:15;3.50;99.90
8226;DHT22;4154;48.810;9.012;2023-02-05T01:15:42;3.50;99.90
8226;DHT22;4154;48.810;9.012;2023-02-05T01:18:08;3.50;99.90
8226;DHT22;4154;48.810;9.012;2023-02-05T01:20:36;3.50;99.90
8226;DHT22;4154;48.810;9.012;2023-02-05T01:23:03;3.50;99.90
8226;DHT22;4154;48.810;9.012;2023-02-05T01:25:29;3.50;99.90
8226;DHT22;4154;48.810;9.012;2023-02-05T01:27:55;3.50;99.90
8226;DHT22;4154;48.810;9.012;2023-02-05T01:30:20;3.50;99.90
8226;DHT22;4154;48.810;9.012;2023-02-05T01:32:46;3.30;99.90
8226;DHT22;4154;48.810;9.012;2023-02-05T01:35:12;3.20;99.90
8226;DHT22;4154;48.810;9.012;2023-02-05T01:37:38;3.20;99.90
8226;DHT22;4154;48.810;9.012;2023-02-05T01:40:04;3.30;99.90
8226;DHT22;4154;48.810;9.012;2023-02-05T01:42:31;3.30;99.90
8226;DHT22;4154;48.810;9.012;2023-02-05T01:47:49;3.30;99.90
8226;DHT22;4154;48.810;9.012;2023-02-05T01:50:24;3.30;99.90
8226;DHT22;4154;48.810;9.012;2023-02-05T01:52:53;3.30;99.90
8226;DHT22;4154;48.810;9.012;2023-02-05T01:55:20;3.30;99.90
8226;DHT22;4154;48.810;9.012;2023-02-05T01:57:47;3.20;99.90
8226;DHT22;4154;48.810;9.012;2023-02-05T02:00:14;3.30;99.90
8226;DHT22;4154;48.810;9.012;2023-02-05T02:02:41;3.20;99.90
8226;DHT22;4154;48.810;9.012;2023-02-05T02:05:12;3.30;99.90
8226;DHT22;4154;48.810;9.012;2023-02-05T02:07:40;3.20;99.90
8226;DHT22;4154;48.810;9.012;2023-02-05T02:10:08;3.20;99.90
8226;DHT22;4154;48.810;9.012;2023-02-05T02:12:38;3.20;99.90
8226;DHT22;4154;48.810;9.012;2023-02-05T02:15:09;3.20;99.90
8226;DHT22;4154;48.810;9.012;2023-02-05T02:17:40;3.10;99.90
8226;DHT22;4154;48.810;9.012;2023-02-05T02:20:21;3.10;99.90
8226;DHT22;4154;48.810;9.012;2023-02-05T02:23:13;3.10;99.90
8226;DHT22;4154;48.810;9.012;2023-02-05T02:29:24;3.20;99.90
8226;DHT22;4154;48.810;9.012;2023-02-05T02:32:09;3.20;99.90
8226;DHT22;4154;48.810;9.012;2023-02-05T02:35:22;3.20;99.90
8226;DHT22;4154;48.810;9.012;2023-02-05T02:38:07;3.20;99.90
8226;DHT22;4154;48.810;9.012;2023-02-05T02:40:47;3.30;99.90
8226;DHT22;4154;48.810;9.012;2023-02-05T02:43:24;3.30;99.90
8226;DHT22;4154;48.810;9.012;2023-02-05T02:46:08;3.30;99.90
8226;DHT22;4154;48.810;9.012;2023-02-05T02:48:42;3.30;99.90
8226;DHT22;4154;48.810;9.012;2023-02-05T02:51:09;3.20;99.90
8226;DHT22;4154;48.810;9.012;2023-02-05T02:53:40;3.20;99.90
8226;DHT22;4154;48.810;9.012;2023-02-05T02:56:11;3.20;99.90
8226;DHT22;4154;48.810;9.012;2023-02-05T02:58:42;3.30;99.90
8226;DHT22;4154;48.810;9.012;2023-02-05T03:01:12;3.20;99.90
8226;DHT22;4154;48.810;9.012;2023-02-05T03:03:42;3.10;99.90
8226;DHT22;4154;48.810;9.012;2023-02-05T03:11:59;3.10;99.90
8226;DHT22;4154;48.810;9.012;2023-02-05T03:14:25;3.10;99.90
8226;DHT22;4154;48.810;9.012;2023-02-05T03:16:51;3.10;99.90
8226;DHT22;4154;48.810;9.012;2023-02-05T03:19:18;3.20;99.90
8226;DHT22;4154;48.810;9.012;2023-02-05T03:21:53;3.20;99.90
8226;DHT22;4154;48.810;9.012;2023-02-05T03:24:20;3.20;99.90
8226;DHT22;4154;48.810;9.012;2023-02-05T03:26:46;3.20;99.90
8226;DHT22;4154;48.810;9.012;2023-02-05T03:29:14;3.20;99.90
8226;DHT22;4154;48.810;9.012;2023-02-05T03:32:08;3.20;99.90
8226;DHT22;4154;48.810;9.012;2023-02-05T03:47:10;3.20;99.90
8226;DHT22;4154;48.810;9.012;2023-02-05T03:49:56;3.20;99.90
8226;DHT22;4154;48.810;9.012;2023-02-05T03:52:33;3.20;99.90
8226;DHT22;4154;48.810;9.012;2023-02-05T03:55:22;3.10;99.90
8226;DHT22;4154;48.810;9.012;2023-02-05T03:58:01;3.10;99.90
8226;DHT22;4154;48.810;9.012;2023-02-05T04:00:33;3.00;99.90
8226;DHT22;4154;48.810;9.012;2023-02-05T04:02:59;3.00;99.90
8226;DHT22;4154;48.810;9.012;2023-02-05T04:05:25;3.00;99.90
8226;DHT22;4154;48.810;9.012;2023-02-05T04:07:51;2.90;99.90
8226;DHT22;4154;48.810;9.012;2023-02-05T04:10:18;3.00;99.90
8226;DHT22;4154;48.810;9.012;2023-02-05T04:12:44;3.00;99.90
8226;DHT22;4154;48.810;9.012;2023-02-05T04:15:10;3.00;99.90
8226;DHT22;4154;48.810;9.012;2023-02-05T04:17:36;3.00;99.90
8226;DHT22;4154;48.810;9.012;2023-02-05T04:20:04;2.90;99.90
8226;DHT22;4154;48.810;9.012;2023-02-05T04:24:57;3.00;99.90
8226;DHT22;4154;48.810;9.012;2023-02-05T04:27:23;3.00;99.90
8226;DHT22;4154;48.810;9.012;2023-02-05T04:29:49;3.00;99.90
8226;DHT22;4154;48.810;9.012;2023-02-05T04:32:15;3.10;99.90
8226;DHT22;4154;48.810;9.012;2023-02-05T04:34:40;3.00;99.90
8226;DHT22;4154;48.810;9.012;2023-02-05T04:37:06;3.00;99.90
8226;DHT22;4154;48.810;9.012;2023-02-05T04:39:31;3.00;99.90
8226;DHT22;4154;48.810;9.012;2023-02-05T04:41:57;3.00;99.90
8226;DHT22;4154;48.810;9.012;2023-02-05T04:44:23;3.00;99.90
8226;DHT22;4154;48.810;9.012;2023-02-05T04:46:48;3.00;99.90
8226;DHT22;4154;48.810;9.012;2023-02-05T04:49:14;3.10;99.90
8226;DHT22;4154;48.810;9.012;2023-02-05T04:51:40;3.00;99.90
8226;DHT22;4154;48.810;9.012;2023-02-05T04:54:05;3.10;99.90
8226;DHT22;4154;48.810;9.012;2023-02-05T04:56:31;3.10;99.90
8226;DHT22;4154;48.810;9.012;2023-02-05T04:58:56;3.20;99.90
8226;DHT22;4154;48.810;9.012;2023-02-05T05:01:22;3.10;99.90
8226;DHT22;4154;48.810;9.012;2023-02-05T05:03:49;3.10;99.90
8226;DHT22;4154;48.810;9.012;2023-02-05T05:06:16;3.10;99.90
8226;DHT22;4154;48.810;9.012;2023-02-05T05:08:43;3.10;99.90
8226;DHT22;4154;48.810;9.012;2023-02-05T05:11:14;3.10;99.90
8226;DHT22;4154;48.810;9.012;2023-02-05T05:13:43;3.00;99.90
8226;DHT22;4154;48.810;9.012;2023-02-05T05:16:10;3.00;99.90
8226;DHT22;4154;48.810;9.012;2023-02-05T05:18:40;3.00;99.90
8226;DHT22;4154;48.810;9.012;2023-02-05T05:21:06;3.10;99.90
8226;DHT22;4154;48.810;9.012;2023-02-05T05:26:03;3.10;99.90
8226;DHT22;4154;48.810;9.012;2023-02-05T05:28:30;3.20;99.90
8226;DHT22;4154;48.810;9.012;2023-02-05T05:30:59;3.30;99.90
8226;DHT22;4154;48.810;9.012;2023-02-05T05:33:29;3.20;99.90
8226;DHT22;4154;48.810;9.012;2023-02-05T05:35:55;3.20;99.90
8226;DHT22;4154;48.810;9.012;2023-02-05T05:38:20;3.20;99.90
8226;DHT22;4154;48.810;9.012;2023-02-05T05:40:46;3.20;99.90
8226;DHT22;4154;48.810;9.012;2023-02-05T05:43:30;3.20;99.90
8226;DHT22;4154;48.810;9.012;2023-02-05T05:46:12;3.20;99.90
8226;DHT22;4154;48.810;9.012;2023-02-05T05:48:50;3.10;99.90
8226;DHT22;4154;48.810;9.012;2023-02-05T05:51:18;3.20;99.90
8226;DHT22;4154;48.810;9.012;2023-02-05T05:53:44;3.20;99.90
8226;DHT22;4154;48.810;9.012;2023-02-05T05:56:11;3.20;99.90
8226;DHT22;4154;48.810;9.012;2023-02-05T05:58:36;3.20;99.90
8226;DHT22;4154;48.810;9.012;2023-02-05T06:01:03;3.20;99.90
8226;DHT22;4154;48.810;9.012;2023-02-05T06:03:30;3.20;99.90
8226;DHT22;4154;48.810;9.012;2023-02-05T06:05:55;3.30;99.90
8226;DHT22;4154;48.810;9.012;2023-02-05T06:08:21;3.20;99.90
8226;DHT22;4154;48.810;9.012;2023-02-05T06:10:47;3.20;99.90
8226;DHT22;4154;48.810;9.012;2023-02-05T06:13:12;3.20;99.90
8226;DHT22;4154;48.810;9.012;2023-02-05T06:15:38;3.20;99.90
8226;DHT22;4154;48.810;9.012;2023-02-05T06:18:04;3.20;99.90
8226;DHT22;4154;48.810;9.012;2023-02-05T06:22:55;3.20;99.90
8226;DHT22;4154;48.810;9.012;2023-02-05T06:25:21;3.20;99.90
8226;DHT22;4154;48.810;9.012;2023-02-05T06:27:47;3.20;99.90
8226;DHT22;4154;48.810;9.012;2023-02-05T06:30:12;3.20;99.90
8226;DHT22;4154;48.810;9.012;2023-02-05T06:32:38;3.20;99.90
8226;DHT22;4154;48.810;9.012;2023-02-05T06:35:04;3.20;99.90
8226;DHT22;4154;48.810;9.012;2023-02-05T06:37:30;3.20;99.90
8226;DHT22;4154;48.810;9.012;2023-02-05T06:44:48;3.20;99.90
8226;DHT22;4154;48.810;9.012;2023-02-05T06:47:14;3.10;99.90
8226;DHT22;4154;48.810;9.012;2023-02-05T06:49:39;3.10;99.90
8226;DHT22;4154;48.810;9.012;2023-02-05T06:52:05;3.10;99.90
8226;DHT22;4154;48.810;9.012;2023-02-05T06:54:30;3.10;99.90
8226;DHT22;4154;48.810;9.012;2023-02-05T06:56:56;3.10;99.90
8226;DHT22;4154;48.810;9.012;2023-02-05T07:01:48;3.00;99.90
8226;DHT22;4154;48.810;9.012;2023-02-05T07:04:14;3.20;99.90
8226;DHT22;4154;48.810;9.012;2023-02-05T07:06:39;3.40;99.90
8226;DHT22;4154;48.810;9.012;2023-02-05T07:09:05;3.20;99.90
8226;DHT22;4154;48.810;9.012;2023-02-05T07:11:31;3.20;99.90
8226;DHT22;4154;48.810;9.012;2023-02-05T07:14:00;3.30;99.90
8226;DHT22;4154;48.810;9.012;2023-02-05T07:16:26;3.30;99.90
8226;DHT22;4154;48.810;9.012;2023-02-05T07:18:53;3.30;99.90
8226;DHT22;4154;48.810;9.012;2023-02-05T07:21:19;3.30;99.90
8226;DHT22;4154;48.810;9.012;2023-02-05T07:23:44;3.30;99.90
8226;DHT22;4154;48.810;9.012;2023-02-05T07:26:13;3.40;99.90
8226;DHT22;4154;48.810;9.012;2023-02-05T07:28:41;3.40;99.90
8226;DHT22;4154;48.810;9.012;2023-02-05T07:31:12;3.30;99.90
8226;DHT22;4154;48.810;9.012;2023-02-05T07:33:41;3.40;99.90
8226;DHT22;4154;48.810;9.012;2023-02-05T07:36:09;3.40;99.90
8226;DHT22;4154;48.810;9.012;2023-02-05T07:38:37;3.40;99.90
8226;DHT22;4154;48.810;9.012;2023-02-05T07:41:08;3.40;99.90
8226;DHT22;4154;48.810;9.012;2023-02-05T07:43:36;3.40;99.90
8226;DHT22;4154;48.810;9.012;2023-02-05T07:46:08;3.40;99.90
8226;DHT22;4154;48.810;9.012;2023-02-05T07:48:36;3.40;99.90
8226;DHT22;4154;48.810;9.012;2023-02-05T07:51:02;3.50;99.90
8226;DHT22;4154;48.810;9.012;2023-02-05T07:53:28;3.50;99.90
8226;DHT22;4154;48.810;9.012;2023-02-05T07:58:20;3.50;99.90
8226;DHT22;4154;48.810;9.012;2023-02-05T08:00:46;3.60;99.90
8226;DHT22;4154;48.810;9.012;2023-02-05T08:03:12;3.50;99.90
8226;DHT22;4154;48.810;9.012;2023-02-05T08:05:38;3.50;99.90
8226;DHT22;4154;48.810;9.012;2023-02-05T08:08:05;3.50;99.90
8226;DHT22;4154;48.810;9.012;2023-02-05T08:10:32;3.50;99.90
8226;DHT22;4154;48.810;9.012;2023-02-05T08:12:58;3.50;99.90
8226;DHT22;4154;48.810;9.012;2023-02-05T08:15:23;3.50;99.90
8226;DHT22;4154;48.810;9.012;2023-02-05T08:17:50;3.50;99.90
8226;DHT22;4154;48.810;9.012;2023-02-05T08:20:16;3.50;99.90
8226;DHT22;4154;48.810;9.012;2023-02-05T08:22:42;3.50;99.90
8226;DHT22;4154;48.810;9.012;2023-02-05T08:25:11;3.50;99.90
8226;DHT22;4154;48.810;9.012;2023-02-05T08:27:40;3.50;99.90
8226;DHT22;4154;48.810;9.012;2023-02-05T08:30:09;3.60;99.90
8226;DHT22;4154;48.810;9.012;2023-02-05T08:32:37;3.60;99.90
8226;DHT22;4154;48.810;9.012;2023-02-05T08:35:03;3.70;99.90
8226;DHT22;4154;48.810;9.012;2023-02-05T08:42:21;3.80;99.90
8226;DHT22;4154;48.810;9.012;2023-02-05T08:44:49;3.80;99.90
8226;DHT22;4154;48.810;9.012;2023-02-05T08:47:18;3.80;99.90
8226;DHT22;4154;48.810;9.012;2023-02-05T08:49:44;3.80;99.90
8226;DHT22;4154;48.810;9.012;2023-02-05T08:54:37;4.00;99.90
8226;DHT22;4154;48.810;9.012;2023-02-05T08:57:03;3.90;99.90
8226;DHT22;4154;48.810;9.012;2023-02-05T08:59:28;4.00;99.90
8226;DHT22;4154;48.810;9.012;2023-02-05T09:01:54;4.10;99.90
8226;DHT22;4154;48.810;9.012;2023-02-05T09:04:20;4.10;99.90
8226;DHT22;4154;48.810;9.012;2023-02-05T09:06:48;4.10;99.90
8226;DHT22;4154;48.810;9.012;2023-02-05T09:09:14;4.10;99.90
8226;DHT22;4154;48.810;9.012;2023-02-05T09:11:40;4.10;99.90
8226;DHT22;4154;48.810;9.012;2023-02-05T09:14:07;4.10;99.90
8226;DHT22;4154;48.810;9.012;2023-02-05T09:16:33;4.20;99.90
8226;DHT22;4154;48.810;9.012;2023-02-05T09:18:59;4.10;99.90
8226;DHT22;4154;48.810;9.012;2023-02-05T09:21:25;4.10;99.90
8226;DHT22;4154;48.810;9.012;2023-02-05T09:23:51;4.10;99.90
8226;DHT22;4154;48.810;9.012;2023-02-05T09:26:18;4.20;99.90
8226;DHT22;4154;48.810;9.012;2023-02-05T09:28:44;4.10;99.90
8226;DHT22;4154;48.810;9.012;2023-02-05T09:31:15;4.10;99.90
8226;DHT22;4154;48.810;9.012;2023-02-05T09:33:42;4.20;99.90
8226;DHT22;4154;48.810;9.012;2023-02-05T09:36:15;4.20;99.90
8226;DHT22;4154;48.810;9.012;2023-02-05T09:38:42;4.20;99.90
8226;DHT22;4154;48.810;9.012;2023-02-05T09:41:15;4.20;99.90
8226;DHT22;4154;48.810;9.012;2023-02-05T09:47:06;4.30;99.90
8226;DHT22;4154;48.810;9.012;2023-02-05T09:49:51;4.20;99.90
8226;DHT22;4154;48.810;9.012;2023-02-05T09:52:43;4.30;99.90
8226;DHT22;4154;48.810;9.012;2023-02-05T09:55:18;4.30;99.90
8226;DHT22;4154;48.810;9.012;2023-02-05T09:57:47;4.30;99.90
8226;DHT22;4154;48.810;9.012;2023-02-05T10:00:24;4.30;99.90
8226;DHT22;4154;48.810;9.012;2023-02-05T10:03:06;4.20;99.90
8226;DHT22;4154;48.810;9.012;2023-02-05T10:06:02;4.30;99.90
8226;DHT22;4154;48.810;9.012;2023-02-05T10:08:58;4.30;99.90
8226;DHT22;4154;48.810;9.012;2023-02-05T10:11:58;4.40;99.90
8226;DHT22;4154;48.810;9.012;2023-02-05T10:14:47;4.40;99.90
8226;DHT22;4154;48.810;9.012;2023-02-05T10:23:31;4.60;99.90
8226;DHT22;4154;48.810;9.012;2023-02-05T10:26:17;4.60;99.90
8226;DHT22;4154;48.810;9.012;2023-02-05T10:29:09;4.70;99.90
8226;DHT22;4154;48.810;9.012;2023-02-05T10:34:57;4.80;99.90
8226;DHT22;4154;48.810;9.012;2023-02-05T10:37:37;4.70;99.90
8226;DHT22;4154;48.810;9.012;2023-02-05T10:40:17;4.90;99.90
8226;DHT22;4154;48.810;9.012;2023-02-05T10:43:15;5.00;99.90
8226;DHT22;4154;48.810;9.012;2023-02-05T10:45:50;5.00;99.90
8226;DHT22;4154;48.810;9.012;2023-02-05T10:48:36;5.00;99.90
8226;DHT22;4154;48.810;9.012;2023-02-05T10:51:14;5.10;99.90
8226;DHT22;4154;48.810;9.012;2023-02-05T10:53:42;5.20;99.90
8226;DHT22;4154;48.810;9.012;2023-02-05T10:56:14;5.10;99.90
8226;DHT22;4154;48.810;9.012;2023-02-05T10:58:46;5.10;99.90
8226;DHT22;4154;48.810;9.012;2023-02-05T11:01:23;5.20;99.90
8226;DHT22;4154;48.810;9.012;2023-02-05T11:03:59;5.20;99.90
8226;DHT22;4154;48.810;9.012;2023-02-05T11:06:29;5.20;99.90
8226;DHT22;4154;48.810;9.012;2023-02-05T11:09:00;5.30;99.90
8226;DHT22;4154;48.810;9.012;2023-02-05T11:11:28;5.40;99.90
8226;DHT22;4154;48.810;9.012;2023-02-05T11:14:01;5.50;99.90
8226;DHT22;4154;48.810;9.012;2023-02-05T11:16:40;5.50;99.90
8226;DHT22;4154;48.810;9.012;2023-02-05T11:19:21;5.50;99.90
8226;DHT22;4154;48.810;9.012;2023-02-05T11:21:55;5.50;99.90
8226;DHT22;4154;48.810;9.012;2023-02-05T11:24:26;5.60;99.90
8226;DHT22;4154;48.810;9.012;2023-02-05T11:27:29;5.60;99.90
8226;DHT22;4154;48.810;9.012;2023-02-05T11:29:59;5.60;99.90
8226;DHT22;4154;48.810;9.012;2023-02-05T11:32:42;5.50;99.90
8226;DHT22;4154;48.810;9.012;2023-02-05T11:35:20;5.70;99.90
8226;DHT22;4154;48.810;9.012;2023-02-05T11:37:59;5.70;99.90
8226;DHT22;4154;48.810;9.012;2023-02-05T11:43:16;5.70;99.90
8226;DHT22;4154;48.810;9.012;2023-02-05T11:46:01;5.70;99.90
8226;DHT22;4154;48.810;9.012;2023-02-05T11:48:39;5.70;99.90
8226;DHT22;4154;48.810;9.012;2023-02-05T11:51:11;5.80;99.90
8226;DHT22;4154;48.810;9.012;2023-02-05T11:53:54;5.70;99.90
8226;DHT22;4154;48.810;9.012;2023-02-05T11:56:24;5.90;99.90
8226;DHT22;4154;48.810;9.012;2023-02-05T11:59:05;5.80;99.90
8226;DHT22;4154;48.810;9.012;2023-02-05T12:01:43;5.90;99.90
8226;DHT22;4154;48.810;9.012;2023-02-05T12:06:52;5.80;99.90
8226;DHT22;4154;48.810;9.012;2023-02-05T12:09:23;5.80;99.90
8226;DHT22;4154;48.810;9.012;2023-02-05T12:14:45;5.80;99.90
8226;DHT22;4154;48.810;9.012;2023-02-05T12:17:46;5.80;99.90
8226;DHT22;4154;48.810;9.012;2023-02-05T12:20:39;5.80;99.90
8226;DHT22;4154;48.810;9.012;2023-02-05T12:29:20;5.70;99.90
8226;DHT22;4154;48.810;9.012;2023-02-05T12:32:15;5.60;99.90
8226;DHT22;4154;48.810;9.012;2023-02-05T12:46:41;5.50;99.90
8226;DHT22;4154;48.810;9.012;2023-02-05T12:49:36;5.50;99.90
8226;DHT22;4154;48.810;9.012;2023-02-05T12:52:32;5.30;99.90
8226;DHT22;4154;48.810;9.012;2023-02-05T12:55:12;5.20;99.90
8226;DHT22;4154;48.810;9.012;2023-02-05T12:58:01;5.30;99.90
8226;DHT22;4154;48.810;9.012;2023-02-05T13:00:37;5.20;99.90
8226;DHT22;4154;48.810;9.012;2023-02-05T13:03:26;5.10;99.90
8226;DHT22;4154;48.810;9.012;2023-02-05T13:06:16;5.10;99.90
8226;DHT22;4154;48.810;9.012;2023-02-05T13:08:54;5.10;99.90
8226;DHT22;4154;48.810;9.012;2023-02-05T13:16:52;5.00;99.90
8226;DHT22;4154;48.810;9.012;2023-02-05T13:19:45;5.10;99.90
8226;DHT22;4154;48.810;9.012;2023-02-05T13:22:39;5.00;99.90
8226;DHT22;4154;48.810;9.012;2023-02-05T13:25:36;4.90;99.90
8226;DHT22;4154;48.810;9.012;2023-02-05T13:34:14;4.80;99.90
8226;DHT22;4154;48.810;9.012;2023-02-05T13:36:54;4.90;99.90
8226;DHT22;4154;48.810;9.012;2023-02-05T13:40:03;4.80;99.90
8226;DHT22;4154;48.810;9.012;2023-02-05T13:43:20;4.70;99.90
8226;DHT22;4154;48.810;9.012;2023-02-05T13:46:15;4.70;99.90
8226;DHT22;4154;48.810;9.012;2023-02-05T13:58:21;4.40;99.90
8226;DHT22;4154;48.810;9.012;2023-02-05T14:01:02;4.40;99.90
8226;DHT22;4154;48.810;9.012;2023-02-05T14:03:37;4.30;99.90
8226;DHT22;4154;48.810;9.012;2023-02-05T14:06:16;4.20;99.90
8226;DHT22;4154;48.810;9.012;2023-02-05T14:09:07;4.20;99.90
8226;DHT22;4154;48.810;9.012;2023-02-05T14:11:49;4.10;99.90
8226;DHT22;4154;48.810;9.012;2023-02-05T14:14:31;4.10;99.90
8226;DHT22;4154;48.810;9.012;2023-02-05T14:19:53;4.10;99.90
8226;DHT22;4154;48.810;9.012;2023-02-05T14:28:01;4.00;99.90
8226;DHT22;4154;48.810;9.012;2023-02-05T14:30:33;4.00;99.90
8226;DHT22;4154;48.810;9.012;2023-02-05T14:33:34;4.00;99.90
8226;DHT22;4154;48.810;9.012;2023-02-05T14:38:43;3.90;99.90
8226;DHT22;4154;48.810;9.012;2023-02-05T14:41:21;4.00;99.90
8226;DHT22;4154;48.810;9.012;2023-02-05T14:44:04;4.50;99.90
8226;DHT22;4154;48.810;9.012;2023-02-05T14:46:56;4.20;99.90
8226;DHT22;4154;48.810;9.012;2023-02-05T14:49:29;4.10;99.90
8226;DHT22;4154;48.810;9.012;2023-02-05T14:52:03;4.10;99.90
8226;DHT22;4154;48.810;9.012;2023-02-05T14:54:40;4.10;99.90
8226;DHT22;4154;48.810;9.012;2023-02-05T14:57:46;4.20;99.90
8226;DHT22;4154;48.810;9.012;2023-02-05T15:11:12;4.30;99.90
8226;DHT22;4154;48.810;9.012;2023-02-05T15:16:47;4.30;99.90
8226;DHT22;4154;48.810;9.012;2023-02-05T15:19:45;4.30;99.90
8226;DHT22;4154;48.810;9.012;2023-02-05T15:22:36;4.20;99.90
8226;DHT22;4154;48.810;9.012;2023-02-05T15:28:15;4.20;99.90
8226;DHT22;4154;48.810;9.012;2023-02-05T15:30:51;4.30;99.90
8226;DHT22;4154;48.810;9.012;2023-02-05T15:33:34;4.30;99.90
8226;DHT22;4154;48.810;9.012;2023-02-05T15:36:59;4.30;99.90
8226;DHT22;4154;48.810;9.012;2023-02-05T15:39:43;4.30;99.90
8226;DHT22;4154;48.810;9.012;2023-02-05T15:42:20;4.30;99.90
8226;DHT22;4154;48.810;9.012;2023-02-05T15:44:52;4.40;99.90
8226;DHT22;4154;48.810;9.012;2023-02-05T15:47:21;4.40;99.90
8226;DHT22;4154;48.810;9.012;2023-02-05T15:49:52;4.30;99.90
8226;DHT22;4154;48.810;9.012;2023-02-05T15:52:24;4.30;99.90
8226;DHT22;4154;48.810;9.012;2023-02-05T15:54:59;4.30;99.90
8226;DHT22;4154;48.810;9.012;2023-02-05T15:57:32;4.30;99.90
8226;DHT22;4154;48.810;9.012;2023-02-05T15:59:59;4.30;99.90
8226;DHT22;4154;48.810;9.012;2023-02-05T16:02:29;4.30;99.90
8226;DHT22;4154;48.810;9.012;2023-02-05T16:05:02;4.20;99.90
8226;DHT22;4154;48.810;9.012;2023-02-05T16:07:42;4.30;99.90
8226;DHT22;4154;48.810;9.012;2023-02-05T16:10:24;4.30;99.90
8226;DHT22;4154;48.810;9.012;2023-02-05T16:13:13;4.20;99.90
8226;DHT22;4154;48.810;9.012;2023-02-05T16:16:06;4.30;99.90
8226;DHT22;4154;48.810;9.012;2023-02-05T16:18:45;4.30;99.90
8226;DHT22;4154;48.810;9.012;2023-02-05T16:21:25;4.20;99.90
8226;DHT22;4154;48.810;9.012;2023-02-05T16:24:01;4.20;99.90
8226;DHT22;4154;48.810;9.012;2023-02-05T16:26:41;4.30;99.90
8226;DHT22;4154;48.810;9.012;2023-02-05T16:29:23;4.30;99.90
8226;DHT22;4154;48.810;9.012;2023-02-05T16:34:46;4.20;99.90
8226;DHT22;4154;48.810;9.012;2023-02-05T16:37:17;4.30;99.90
8226;DHT22;4154;48.810;9.012;2023-02-05T16:39:54;4.30;99.90
8226;DHT22;4154;48.810;9.012;2023-02-05T16:42:40;4.20;99.90
8226;DHT22;4154;48.810;9.012;2023-02-05T16:47:38;4.20;99.90
8226;DHT22;4154;48.810;9.012;2023-02-05T16:50:33;4.20;99.90
8226;DHT22;4154;48.810;9.012;2023-02-05T16:53:33;4.30;99.90
8226;DHT22;4154;48.810;9.012;2023-02-05T16:56:24;4.30;99.90
8226;DHT22;4154;48.810;9.012;2023-02-05T16:59:00;4.30;99.90
8226;DHT22;4154;48.810;9.012;2023-02-05T17:01:35;4.30;99.90
8226;DHT22;4154;48.810;9.012;2023-02-05T17:04:03;4.30;99.90
8226;DHT22;4154;48.810;9.012;2023-02-05T17:06:36;4.20;99.90
8226;DHT22;4154;48.810;9.012;2023-02-05T17:09:03;4.20;99.90
8226;DHT22;4154;48.810;9.012;2023-02-05T17:14:18;4.30;99.90
8226;DHT22;4154;48.810;9.012;2023-02-05T17:16:53;4.30;99.90
8226;DHT22;4154;48.810;9.012;2023-02-05T17:19:38;4.20;99.90
8226;DHT22;4154;48.810;9.012;2023-02-05T17:24:40;4.20;99.90
8226;DHT22;4154;48.810;9.012;2023-02-05T17:27:18;4.20;99.90
8226;DHT22;4154;48.810;9.012;2023-02-05T17:29:51;4.20;99.90
8226;DHT22;4154;48.810;9.012;2023-02-05T17:32:18;4.20;99.90
8226;DHT22;4154;48.810;9.012;2023-02-05T17:34:45;4.20;99.90
8226;DHT22;4154;48.810;9.012;2023-02-05T17:37:11;4.20;99.90
8226;DHT22;4154;48.810;9.012;2023-02-05T17:39:38;4.20;99.90
8226;DHT22;4154;48.810;9.012;2023-02-05T17:42:04;4.20;99.90
8226;DHT22;4154;48.810;9.012;2023-02-05T17:44:32;4.30;99.90
8226;DHT22;4154;48.810;9.012;2023-02-05T17:47:00;4.30;99.90
8226;DHT22;4154;48.810;9.012;2023-02-05T17:49:26;5.00;99.90
8226;DHT22;4154;48.810;9.012;2023-02-05T17:51:52;4.30;99.90
8226;DHT22;4154;48.810;9.012;2023-02-05T17:54:22;4.20;99.90
8226;DHT22;4154;48.810;9.012;2023-02-05T17:56:56;4.20;99.90
8226;DHT22;4154;48.810;9.012;2023-02-05T17:59:34;4.20;99.90
8226;DHT22;4154;48.810;9.012;2023-02-05T18:01:59;4.30;99.90
8226;DHT22;4154;48.810;9.012;2023-02-05T18:04:25;4.30;99.90
8226;DHT22;4154;48.810;9.012;2023-02-05T18:06:51;4.20;99.90
8226;DHT22;4154;48.810;9.012;2023-02-05T18:09:18;4.20;99.90
8226;DHT22;4154;48.810;9.012;2023-02-05T18:14:10;4.20;99.90
8226;DHT22;4154;48.810;9.012;2023-02-05T18:16:36;4.20;99.90
8226;DHT22;4154;48.810;9.012;2023-02-05T18:19:03;4.10;99.90
8226;DHT22;4154;48.810;9.012;2023-02-05T18:21:28;4.20;99.90
8226;DHT22;4154;48.810;9.012;2023-02-05T18:23:54;4.20;99.90
8226;DHT22;4154;48.810;9.012;2023-02-05T18:26:20;4.20;99.90
8226;DHT22;4154;48.810;9.012;2023-02-05T18:28:46;4.20;99.90
8226;DHT22;4154;48.810;9.012;2023-02-05T18:31:13;4.10;99.90
8226;DHT22;4154;48.810;9.012;2023-02-05T18:33:39;4.10;99.90
8226;DHT22;4154;48.810;9.012;2023-02-05T18:36:10;4.10;99.90
8226;DHT22;4154;48.810;9.012;2023-02-05T18:38:38;4.10;99.90
8226;DHT22;4154;48.810;9.012;2023-02-05T18:41:07;4.00;99.90
8226;DHT22;4154;48.810;9.012;2023-02-05T18:43:38;4.10;99.90
8226;DHT22;4154;48.810;9.012;2023-02-05T18:46:06;4.10;99.90
8226;DHT22;4154;48.810;9.012;2023-02-05T18:48:37;4.00;99.90
8226;DHT22;4154;48.810;9.012;2023-02-05T18:51:06;4.00;99.90
8226;DHT22;4154;48.810;9.012;2023-02-05T18:53:34;3.90;99.90
8226;DHT22;4154;48.810;9.012;2023-02-05T18:56:05;4.00;99.90
8226;DHT22;4154;48.810;9.012;2023-02-05T18:58:34;3.90;99.90
8226;DHT22;4154;48.810;9.012;2023-02-05T19:03:36;4.80;99.90
8226;DHT22;4154;48.810;9.012;2023-02-05T19:06:07;3.80;99.90
8226;DHT22;4154;48.810;9.012;2023-02-05T19:11:08;3.60;99.90
8226;DHT22;4154;48.810;9.012;2023-02-05T19:13:35;3.50;99.90
8226;DHT22;4154;48.810;9.012;2023-02-05T19:16:06;3.50;99.90
8226;DHT22;4154;48.810;9.012;2023-02-05T19:21:05;3.40;99.90
8226;DHT22;4154;48.810;9.012;2023-02-05T19:23:33;3.30;99.90
8226;DHT22;4154;48.810;9.012;2023-02-05T19:26:14;3.30;99.90
8226;DHT22;4154;48.810;9.012;2023-02-05T19:28:43;3.30;99.90
8226;DHT22;4154;48.810;9.012;2023-02-05T19:31:12;3.30;99.90